createdAt,value
2018-06-12T00:01:53.176Z,16.70
2018-06-12T00:04:44.816Z,16.70
2018-06-12T00:07:35.568Z,16.70
2018-06-12T00:10:10.639Z,16.80
2018-06-12T00:12:44.379Z,16.80
2018-06-12T00:15:18.139Z,16.80
2018-06-12T00:17:51.898Z,16.80
2018-06-12T00:20:25.718Z,16.80
2018-06-12T00:22:59.666Z,16.80
2018-06-12T00:25:33.496Z,16.70
2018-06-12T00:28:07.355Z,16.70
2018-06-12T00:30:41.210Z,16.70
2018-06-12T00:33:14.994Z,16.70
2018-06-12T00:35:49.706Z,16.70
2018-06-12T00:38:23.450Z,16.70
2018-06-12T00:40:57.359Z,16.70
2018-06-12T00:43:31.113Z,16.70
2018-06-12T00:46:05.005Z,16.70
2018-06-12T00:48:38.828Z,16.70
2018-06-12T00:51:12.702Z,16.60
2018-06-12T00:53:46.462Z,16.60
2018-06-12T00:56:41.577Z,16.60
2018-06-12T00:59:15.345Z,16.50
2018-06-12T01:01:49.198Z,16.50
2018-06-12T01:04:22.982Z,16.50
2018-06-12T01:06:56.823Z,16.50
2018-06-12T01:09:30.640Z,16.40
2018-06-12T01:12:04.609Z,16.50
2018-06-12T01:14:38.414Z,16.40
2018-06-12T01:17:12.362Z,16.50
2018-06-12T01:19:46.193Z,16.50
2018-06-12T01:22:20.087Z,16.40
2018-06-12T01:24:53.958Z,16.40
2018-06-12T01:27:27.842Z,16.40
2018-06-12T01:30:01.619Z,16.40
2018-06-12T01:32:35.498Z,16.40
2018-06-12T01:35:09.343Z,16.40
2018-06-12T01:37:43.134Z,16.40
2018-06-12T01:40:16.998Z,16.40
2018-06-12T01:42:50.859Z,16.40
2018-06-12T01:45:24.625Z,16.40
2018-06-12T01:47:58.442Z,16.40
2018-06-12T01:50:32.222Z,16.40
2018-06-12T01:53:05.997Z,16.40
2018-06-12T01:55:39.838Z,16.40
2018-06-12T01:58:13.608Z,16.40
2018-06-12T02:00:47.553Z,16.30
2018-06-12T02:03:21.342Z,16.30
2018-06-12T02:05:55.225Z,16.30
2018-06-12T02:08:29.051Z,16.30
2018-06-12T02:11:03.005Z,16.30
2018-06-12T02:13:36.874Z,16.30
2018-06-12T02:16:10.820Z,16.40
2018-06-12T02:18:44.657Z,16.30
2018-06-12T02:21:18.561Z,16.40
2018-06-12T02:23:52.432Z,16.40
2018-06-12T02:26:26.304Z,16.40
2018-06-12T02:29:00.052Z,16.40
2018-06-12T02:31:33.939Z,16.40
2018-06-12T02:34:07.717Z,16.40
2018-06-12T02:36:41.595Z,16.40
2018-06-12T02:39:15.397Z,16.40
2018-06-12T02:41:49.113Z,16.30
2018-06-12T02:44:22.905Z,16.40
2018-06-12T02:46:56.687Z,16.40
2018-06-12T02:49:30.472Z,16.40
2018-06-12T02:52:04.300Z,16.40
2018-06-12T02:54:38.090Z,16.40
2018-06-12T02:57:11.905Z,16.50
2018-06-12T02:59:45.787Z,16.50
2018-06-12T03:02:19.629Z,16.50
2018-06-12T03:04:53.394Z,16.50
2018-06-12T03:07:27.135Z,16.50
2018-06-12T03:10:01.042Z,16.50
2018-06-12T03:12:34.812Z,16.50
2018-06-12T03:15:08.600Z,16.40
2018-06-12T03:17:42.383Z,16.40
2018-06-12T03:20:16.224Z,16.40
2018-06-12T03:25:23.254Z,16.30
2018-06-12T03:27:57.086Z,16.30
2018-06-12T03:30:30.933Z,16.30
2018-06-12T03:33:04.777Z,16.20
2018-06-12T03:35:38.671Z,16.20
2018-06-12T03:38:12.405Z,16.20
2018-06-12T03:40:46.271Z,16.20
2018-06-12T03:43:20.144Z,16.20
2018-06-12T03:45:53.893Z,16.20
2018-06-12T03:48:27.666Z,16.20
2018-06-12T03:51:01.395Z,16.20
2018-06-12T03:53:35.220Z,16.20
2018-06-12T03:56:09.103Z,16.20
2018-06-12T03:58:42.893Z,16.30
2018-06-12T04:01:16.691Z,16.30
2018-06-12T04:03:50.569Z,16.30
2018-06-12T04:06:24.428Z,16.30
2018-06-12T04:08:58.211Z,16.30
2018-06-12T04:11:32.138Z,16.30
2018-06-12T04:14:06.064Z,16.30
2018-06-12T04:16:39.906Z,16.40
2018-06-12T04:19:13.788Z,16.40
2018-06-12T04:21:47.726Z,16.50
2018-06-12T04:24:21.664Z,16.50
2018-06-12T04:26:55.451Z,16.60
2018-06-12T04:29:29.236Z,16.60
2018-06-12T04:32:01.711Z,16.60
2018-06-12T04:34:34.118Z,16.60
2018-06-12T04:37:06.581Z,16.60
2018-06-12T04:39:38.950Z,16.60
2018-06-12T04:42:11.385Z,16.60
2018-06-12T04:44:43.761Z,16.60
2018-06-12T04:47:16.257Z,16.60
2018-06-12T04:49:48.619Z,16.60
2018-06-12T04:52:21.025Z,16.60
2018-06-12T04:54:53.433Z,16.60
2018-06-12T04:57:25.769Z,16.60
2018-06-12T04:59:58.103Z,16.60
2018-06-12T05:02:30.464Z,16.60
2018-06-12T05:05:02.848Z,16.60
2018-06-12T05:07:35.225Z,16.60
2018-06-12T05:10:07.848Z,16.70
2018-06-12T05:12:40.197Z,16.60
2018-06-12T05:15:12.617Z,16.60
2018-06-12T05:17:44.954Z,16.60
2018-06-12T05:20:17.368Z,16.60
2018-06-12T05:22:49.808Z,16.70
2018-06-12T05:25:22.158Z,16.70
2018-06-12T05:27:54.588Z,16.80
2018-06-12T05:30:26.945Z,16.80
2018-06-12T05:32:59.369Z,16.90
2018-06-12T05:35:31.742Z,17.00
2018-06-12T05:38:04.193Z,17.00
2018-06-12T05:40:36.561Z,17.10
2018-06-12T05:43:09.006Z,17.20
2018-06-12T05:45:41.414Z,17.30
2018-06-12T05:48:13.992Z,17.30
2018-06-12T05:50:46.357Z,17.30
2018-06-12T05:53:18.771Z,17.40
2018-06-12T05:55:51.138Z,17.40
2018-06-12T05:58:23.545Z,17.40
2018-06-12T06:00:55.969Z,17.50
2018-06-12T06:03:28.560Z,17.50
2018-06-12T06:06:00.978Z,17.60
2018-06-12T06:08:33.419Z,17.60
2018-06-12T06:11:05.825Z,17.50
2018-06-12T06:13:38.531Z,17.50
2018-06-12T06:16:11.202Z,17.50
2018-06-12T06:18:43.652Z,17.60
2018-06-12T06:21:16.037Z,17.70
2018-06-12T06:23:48.582Z,17.70
2018-06-12T06:26:21.171Z,17.70
2018-06-12T06:28:53.642Z,17.70
2018-06-12T06:31:26.112Z,17.70
2018-06-12T06:33:58.656Z,17.80
2018-06-12T06:36:31.148Z,17.90
2018-06-12T06:39:04.651Z,18.00
2018-06-12T06:41:37.375Z,18.10
2018-06-12T06:44:09.772Z,18.10
2018-06-12T06:46:42.298Z,18.20
2018-06-12T06:49:14.757Z,18.20
2018-06-12T06:51:47.164Z,18.20
2018-06-12T06:54:19.628Z,18.10
2018-06-12T06:56:52.174Z,18.10
2018-06-12T06:59:45.695Z,18.20
2018-06-12T07:02:26.977Z,18.20
2018-06-12T07:05:00.866Z,18.10
2018-06-12T07:07:33.603Z,18.20
2018-06-12T07:10:06.183Z,18.20
2018-06-12T07:12:38.607Z,18.20
2018-06-12T07:15:11.241Z,18.30
2018-06-12T07:17:43.830Z,18.30
2018-06-12T07:20:59.889Z,18.30
2018-06-12T07:23:32.510Z,18.30
2018-06-12T07:26:05.530Z,18.30
2018-06-12T07:28:40.896Z,18.20
2018-06-12T07:31:13.317Z,18.20
2018-06-12T07:33:47.885Z,18.20
2018-06-12T07:36:21.620Z,18.10
2018-06-12T07:38:54.741Z,18.00
2018-06-12T07:41:27.547Z,18.00
2018-06-12T07:44:00.183Z,18.10
2018-06-12T07:46:36.004Z,18.10
2018-06-12T07:49:08.456Z,18.10
2018-06-12T07:51:40.847Z,18.20
2018-06-12T07:54:13.279Z,18.30
2018-06-12T07:56:45.692Z,18.40
2018-06-12T07:59:20.231Z,18.40
2018-06-12T08:01:52.659Z,18.30
2018-06-12T08:04:25.123Z,18.30
2018-06-12T08:06:57.563Z,18.20
2018-06-12T08:09:29.989Z,18.20
2018-06-12T08:12:02.400Z,18.20
2018-06-12T08:14:34.820Z,18.20
2018-06-12T08:17:07.267Z,18.40
2018-06-12T08:19:39.736Z,18.50
2018-06-12T08:22:12.139Z,18.60
2018-06-12T08:24:44.530Z,18.60
2018-06-12T08:29:48.986Z,18.60
2018-06-12T08:32:21.497Z,18.60
2018-06-12T08:34:53.885Z,18.60
2018-06-12T08:37:26.237Z,18.50
2018-06-12T08:39:58.685Z,18.50
2018-06-12T08:42:31.037Z,18.50
2018-06-12T08:45:03.455Z,18.40
2018-06-12T08:47:35.897Z,18.30
2018-06-12T08:50:08.368Z,18.20
2018-06-12T08:52:40.839Z,18.20
2018-06-12T08:55:13.201Z,18.10
2018-06-12T08:57:45.664Z,18.00
2018-06-12T09:00:18.065Z,18.00
2018-06-12T09:02:50.420Z,18.00
2018-06-12T09:05:22.817Z,18.10
2018-06-12T09:07:55.169Z,18.10
2018-06-12T09:10:27.610Z,18.30
2018-06-12T09:13:00.011Z,18.50
2018-06-12T09:15:32.369Z,18.60
2018-06-12T09:18:04.798Z,18.70
2018-06-12T09:20:37.154Z,18.80
2018-06-12T09:23:09.543Z,18.80
2018-06-12T09:25:41.941Z,18.90
2018-06-12T09:28:14.357Z,18.90
2018-06-12T09:30:46.776Z,18.90
2018-06-12T09:33:19.246Z,18.80
2018-06-12T09:35:51.724Z,18.80
2018-06-12T09:38:24.180Z,18.80
2018-06-12T09:40:56.601Z,18.80
2018-06-12T09:43:29.056Z,18.80
2018-06-12T09:46:01.455Z,18.90
2018-06-12T09:48:33.923Z,19.10
2018-06-12T09:51:06.345Z,19.10
2018-06-12T09:53:38.851Z,19.10
2018-06-12T09:56:11.383Z,19.10
2018-06-12T09:58:43.877Z,18.90
2018-06-12T10:01:22.229Z,18.90
2018-06-12T10:03:55.669Z,18.90
2018-06-12T10:06:28.103Z,18.90
2018-06-12T10:09:00.583Z,18.90
2018-06-12T10:11:33.837Z,19.00
2018-06-12T10:14:06.301Z,19.00
2018-06-12T10:16:38.684Z,18.90
2018-06-12T10:19:11.121Z,19.00
2018-06-12T10:21:43.559Z,19.00
2018-06-12T10:24:16.104Z,19.00
2018-06-12T10:26:48.524Z,19.00
2018-06-12T10:29:20.956Z,19.10
2018-06-12T10:31:53.357Z,19.20
2018-06-12T10:34:25.830Z,19.30
2018-06-12T10:36:58.252Z,19.50
2018-06-12T10:39:30.726Z,19.60
2018-06-12T10:42:03.147Z,19.50
2018-06-12T10:44:35.592Z,19.60
2018-06-12T10:47:08.055Z,19.70
2018-06-12T10:49:40.512Z,19.70
2018-06-12T10:52:12.903Z,19.60
2018-06-12T10:54:45.352Z,19.50
2018-06-12T10:57:17.913Z,19.40
2018-06-12T10:59:50.393Z,19.50
2018-06-12T11:02:22.863Z,19.40
2018-06-12T11:04:55.385Z,19.40
2018-06-12T11:07:27.797Z,19.40
2018-06-12T11:10:00.288Z,19.50
2018-06-12T11:12:32.697Z,19.50
2018-06-12T11:15:05.148Z,19.60
2018-06-12T11:17:37.636Z,19.80
2018-06-12T11:20:10.108Z,20.00
2018-06-12T11:22:42.539Z,20.20
2018-06-12T11:25:15.004Z,20.20
2018-06-12T11:27:47.430Z,20.20
2018-06-12T11:30:19.901Z,20.20
2018-06-12T11:32:52.338Z,20.10
2018-06-12T11:35:24.813Z,20.00
2018-06-12T11:37:57.226Z,20.00
2018-06-12T11:40:29.690Z,20.00
2018-06-12T11:43:02.268Z,19.90
2018-06-12T11:45:34.697Z,19.80
2018-06-12T11:48:07.633Z,19.70
2018-06-12T11:50:40.073Z,19.70
2018-06-12T11:53:12.504Z,19.80
2018-06-12T11:55:44.969Z,19.80
2018-06-12T11:58:17.389Z,19.50
2018-06-12T12:00:49.900Z,19.40
2018-06-12T12:03:22.485Z,19.20
2018-06-12T12:05:55.014Z,19.10
2018-06-12T12:08:27.472Z,19.00
2018-06-12T12:10:59.933Z,19.10
2018-06-12T12:13:32.396Z,19.10
2018-06-12T12:16:04.860Z,19.00
2018-06-12T12:18:37.288Z,19.00
2018-06-12T12:21:09.758Z,19.00
2018-06-12T12:23:42.204Z,19.00
2018-06-12T12:26:14.688Z,19.00
2018-06-12T12:28:47.112Z,19.00
2018-06-12T12:31:19.553Z,19.00
2018-06-12T12:33:51.957Z,19.10
2018-06-12T12:36:24.405Z,19.10
2018-06-12T12:38:56.878Z,19.20
2018-06-12T12:41:29.375Z,19.20
2018-06-12T12:44:01.831Z,19.30
2018-06-12T12:46:34.293Z,19.20
2018-06-12T12:49:07.336Z,19.10
2018-06-12T12:51:39.746Z,19.10
2018-06-12T12:54:12.171Z,19.10
2018-06-12T12:56:44.559Z,19.10
2018-06-12T12:59:16.986Z,19.00
2018-06-12T13:01:49.388Z,19.00
2018-06-12T13:04:21.802Z,18.90
2018-06-12T13:06:54.206Z,18.90
2018-06-12T13:09:26.576Z,18.80
2018-06-12T13:11:59.041Z,18.70
2018-06-12T13:14:33.342Z,18.60
2018-06-12T13:17:05.768Z,18.60
2018-06-12T13:19:38.254Z,18.50
2018-06-12T13:22:10.671Z,18.50
2018-06-12T13:24:43.098Z,18.60
2018-06-12T13:27:15.601Z,18.70
2018-06-12T13:29:48.009Z,18.80
2018-06-12T13:32:20.408Z,19.00
2018-06-12T13:34:52.821Z,19.10
2018-06-12T13:37:25.251Z,19.10
2018-06-12T13:39:57.645Z,19.10
2018-06-12T13:42:30.064Z,19.00
2018-06-12T13:45:02.550Z,19.10
2018-06-12T13:47:34.949Z,19.10
2018-06-12T13:50:07.351Z,19.00
2018-06-12T13:52:39.760Z,19.10
2018-06-12T13:55:12.193Z,19.10
2018-06-12T13:57:44.628Z,19.20
2018-06-12T14:00:17.070Z,19.30
2018-06-12T14:02:49.503Z,19.20
2018-06-12T14:05:21.917Z,19.10
2018-06-12T14:07:54.421Z,19.00
2018-06-12T14:10:26.899Z,18.80
2018-06-12T14:12:59.353Z,18.70
2018-06-12T14:15:31.779Z,18.70
2018-06-12T14:18:04.225Z,18.80
2018-06-12T14:20:36.641Z,18.80
2018-06-12T14:23:09.081Z,18.80
2018-06-12T14:25:41.577Z,18.90
2018-06-12T14:28:14.037Z,18.90
2018-06-12T14:30:46.476Z,19.00
2018-06-12T14:33:18.890Z,19.00
2018-06-12T14:35:52.388Z,19.00
2018-06-12T14:38:24.781Z,18.90
2018-06-12T14:40:57.178Z,18.90
2018-06-12T14:43:29.568Z,19.00
2018-06-12T14:46:01.954Z,18.80
2018-06-12T14:48:34.348Z,18.80
2018-06-12T14:51:06.768Z,18.90
2018-06-12T14:53:39.160Z,19.00
2018-06-12T14:56:11.532Z,19.10
2018-06-12T14:58:43.950Z,19.20
2018-06-12T15:01:16.444Z,19.20
2018-06-12T15:03:48.842Z,19.10
2018-06-12T15:06:21.315Z,19.00
2018-06-12T15:08:53.701Z,18.90
2018-06-12T15:11:26.107Z,18.70
2018-06-12T15:13:58.570Z,18.70
2018-06-12T15:16:30.979Z,18.60
2018-06-12T15:19:03.464Z,18.60
2018-06-12T15:21:35.948Z,18.60
2018-06-12T15:24:08.601Z,18.60
2018-06-12T15:26:41.020Z,18.70
2018-06-12T15:29:13.894Z,18.60
2018-06-12T15:31:46.326Z,18.60
2018-06-12T15:34:18.712Z,18.50
2018-06-12T15:36:51.154Z,18.40
2018-06-12T15:39:24.037Z,18.40
2018-06-12T15:41:56.602Z,18.40
2018-06-12T15:44:29.005Z,18.40
2018-06-12T15:47:01.433Z,18.30
2018-06-12T15:49:33.785Z,18.20
2018-06-12T15:52:06.199Z,18.20
2018-06-12T15:54:38.640Z,18.10
2018-06-12T15:57:11.060Z,18.00
2018-06-12T15:59:43.445Z,17.90
2018-06-12T16:02:15.889Z,17.90
2018-06-12T16:04:48.286Z,17.90
2018-06-12T16:07:20.762Z,18.00
2018-06-12T16:09:53.095Z,17.90
2018-06-12T16:12:25.480Z,18.00
2018-06-12T16:14:57.848Z,18.00
2018-06-12T16:17:30.270Z,18.10
2018-06-12T16:20:02.648Z,18.20
2018-06-12T16:22:35.041Z,18.20
2018-06-12T16:25:07.432Z,18.20
2018-06-12T16:27:39.886Z,18.20
2018-06-12T16:30:12.242Z,18.10
2018-06-12T16:32:45.883Z,18.00
2018-06-12T16:35:18.316Z,17.80
2018-06-12T16:37:51.033Z,17.90
2018-06-12T16:40:23.431Z,18.10
2018-06-12T16:42:55.814Z,18.30
2018-06-12T16:45:28.205Z,18.50
2018-06-12T16:48:00.603Z,18.60
2018-06-12T16:50:33.005Z,18.60
2018-06-12T16:53:05.436Z,18.40
2018-06-12T16:55:37.851Z,18.20
2018-06-12T16:58:10.236Z,18.00
2018-06-12T17:00:42.618Z,17.90
2018-06-12T17:03:15.168Z,17.80
2018-06-12T17:05:47.574Z,17.70
2018-06-12T17:08:20.004Z,17.60
2018-06-12T17:10:52.423Z,17.50
2018-06-12T17:13:24.961Z,17.40
2018-06-12T17:15:57.444Z,17.30
2018-06-12T17:18:29.939Z,17.20
2018-06-12T17:21:02.406Z,17.10
2018-06-12T17:23:34.915Z,17.10
2018-06-12T17:26:07.473Z,17.10
2018-06-12T17:28:39.906Z,17.10
2018-06-12T17:31:12.322Z,17.20
2018-06-12T17:33:44.740Z,17.20
2018-06-12T17:36:17.186Z,17.20
2018-06-12T17:38:50.138Z,17.10
2018-06-12T17:41:22.533Z,17.10
2018-06-12T17:43:54.978Z,17.00
2018-06-12T17:46:27.370Z,17.10
2018-06-12T17:48:59.813Z,17.20
2018-06-12T17:51:32.230Z,17.30
2018-06-12T17:54:04.697Z,17.40
2018-06-12T17:56:37.152Z,17.50
2018-06-12T17:59:09.589Z,17.50
2018-06-12T18:01:42.015Z,17.60
2018-06-12T18:04:14.526Z,17.60
2018-06-12T18:06:46.957Z,17.60
2018-06-12T18:09:19.428Z,17.60
2018-06-12T18:11:51.823Z,17.50
2018-06-12T18:14:24.349Z,17.40
2018-06-12T18:16:56.781Z,17.30
2018-06-12T18:19:29.178Z,17.20
2018-06-12T18:22:01.608Z,17.10
2018-06-12T18:24:34.079Z,17.10
2018-06-12T18:27:06.459Z,17.00
2018-06-12T18:29:38.830Z,16.90
2018-06-12T18:32:11.228Z,16.90
2018-06-12T18:34:43.684Z,16.80
2018-06-12T18:37:16.259Z,16.80
2018-06-12T18:39:48.717Z,16.80
2018-06-12T18:42:21.136Z,16.80
2018-06-12T18:44:53.568Z,16.70
2018-06-12T18:47:26.001Z,16.70
2018-06-12T18:49:58.433Z,16.70
2018-06-12T18:52:30.860Z,16.80
2018-06-12T18:55:04.569Z,16.80
2018-06-12T18:57:38.258Z,16.80
2018-06-12T19:00:12.002Z,16.80
2018-06-12T19:02:44.551Z,16.80
2018-06-12T19:05:17.042Z,16.80
2018-06-12T19:07:49.521Z,16.80
2018-06-12T19:10:21.922Z,16.80
2018-06-12T19:12:54.391Z,16.80
2018-06-12T19:15:26.796Z,16.80
2018-06-12T19:17:59.244Z,16.80
2018-06-12T19:20:31.662Z,16.80
2018-06-12T19:23:04.141Z,16.80
2018-06-12T19:25:36.561Z,16.80
2018-06-12T19:28:09.013Z,16.80
2018-06-12T19:30:41.429Z,16.70
2018-06-12T19:33:14.117Z,16.70
2018-06-12T19:35:46.603Z,16.70
2018-06-12T19:38:19.107Z,16.70
2018-06-12T19:40:51.497Z,16.70
2018-06-12T19:43:24.049Z,16.60
2018-06-12T19:45:56.427Z,16.60
2018-06-12T19:48:28.922Z,16.60
2018-06-12T19:51:01.415Z,16.60
2018-06-12T19:53:33.941Z,16.60
2018-06-12T19:58:38.331Z,16.60
2018-06-12T20:01:10.800Z,16.60
2018-06-12T20:03:43.191Z,16.70
2018-06-12T20:06:15.660Z,16.60
2018-06-12T20:08:48.197Z,16.70
2018-06-12T20:11:20.633Z,16.60
2018-06-12T20:13:53.105Z,16.50
2018-06-12T20:16:25.501Z,16.50
2018-06-12T20:18:58.058Z,16.50
2018-06-12T20:21:30.488Z,16.50
2018-06-12T20:24:02.933Z,16.50
2018-06-12T20:26:35.314Z,16.50
2018-06-12T20:29:07.865Z,16.50
2018-06-12T20:31:40.302Z,16.50
2018-06-12T20:34:12.733Z,16.50
2018-06-12T20:36:48.122Z,16.50
2018-06-12T20:39:24.562Z,16.50
2018-06-12T20:42:00.241Z,16.50
2018-06-12T20:44:33.920Z,16.50
2018-06-12T20:47:09.280Z,16.40
2018-06-12T20:49:42.296Z,16.40
2018-06-12T20:52:15.202Z,16.40
2018-06-12T20:54:49.571Z,16.40
2018-06-12T20:57:22.804Z,16.50
2018-06-12T20:59:55.655Z,16.40
2018-06-12T21:02:30.617Z,16.40
2018-06-12T21:05:06.211Z,16.40
2018-06-12T21:07:39.897Z,16.40
2018-06-12T21:10:13.847Z,16.40
2018-06-12T21:12:47.751Z,16.40
2018-06-12T21:15:21.521Z,16.40
2018-06-12T21:17:55.348Z,16.40
2018-06-12T21:20:29.182Z,16.40
2018-06-12T21:23:02.973Z,16.30
2018-06-12T21:28:10.124Z,16.30
2018-06-12T21:30:43.987Z,16.30
2018-06-12T21:33:17.875Z,16.20
2018-06-12T21:35:52.661Z,16.30
2018-06-12T21:38:26.538Z,16.30
2018-06-12T21:41:00.461Z,16.30
2018-06-12T21:43:34.171Z,16.30
2018-06-12T21:46:08.361Z,16.30
2018-06-12T21:48:42.138Z,16.30
2018-06-12T21:51:15.962Z,16.30
2018-06-12T21:53:49.719Z,16.30
2018-06-12T21:56:23.477Z,16.20
2018-06-12T21:58:57.138Z,16.30
2018-06-12T22:01:31.015Z,16.20
2018-06-12T22:04:04.642Z,16.20
2018-06-12T22:06:38.402Z,16.20
2018-06-12T22:09:12.215Z,16.20
2018-06-12T22:11:46.627Z,16.20
2018-06-12T22:14:20.408Z,16.10
2018-06-12T22:16:55.158Z,16.10
2018-06-12T22:19:28.942Z,16.10
2018-06-12T22:22:02.761Z,16.00
2018-06-12T22:24:36.571Z,16.00
2018-06-12T22:27:10.449Z,15.90
2018-06-12T22:29:44.193Z,15.80
2018-06-12T22:32:18.046Z,15.70
2018-06-12T22:34:51.834Z,15.60
2018-06-12T22:37:25.650Z,15.50
2018-06-12T22:39:59.495Z,15.50
2018-06-12T22:42:33.324Z,15.50
2018-06-12T22:45:07.157Z,15.50
2018-06-12T22:47:41.003Z,15.50
2018-06-12T22:50:14.660Z,15.60
2018-06-12T22:52:48.490Z,15.60
2018-06-12T22:55:22.213Z,15.60
2018-06-12T22:57:55.926Z,15.60
2018-06-12T23:00:29.643Z,15.60
2018-06-12T23:03:03.471Z,15.50
2018-06-12T23:05:37.186Z,15.50
2018-06-12T23:08:11.122Z,15.50
2018-06-12T23:10:44.854Z,15.50
2018-06-12T23:13:18.665Z,15.50
2018-06-12T23:15:52.610Z,15.40
2018-06-12T23:18:26.575Z,15.40
2018-06-12T23:22:09.702Z,15.30
2018-06-12T23:24:43.436Z,15.30
2018-06-12T23:27:17.313Z,15.30
2018-06-12T23:29:51.180Z,15.30
2018-06-12T23:32:25.025Z,15.30
2018-06-12T23:34:58.779Z,15.30
2018-06-12T23:37:32.592Z,15.30
2018-06-12T23:40:06.501Z,15.20
2018-06-12T23:42:40.376Z,15.20
2018-06-12T23:45:14.184Z,15.30
2018-06-12T23:47:48.019Z,15.20
2018-06-12T23:50:21.804Z,15.20
2018-06-12T23:52:55.575Z,15.20
2018-06-12T23:55:29.367Z,15.10
2018-06-12T23:58:03.207Z,15.10
